sensor_id;sensor_type;location;lat;lon;timestamp;temperature;humidity
78054;DHT22;67726;45.636;11.752;2023-03-19T00:01:05;9.10;69.10
78054;DHT22;67726;45.636;11.752;2023-03-19T00:03:33;9.00;68.60
78054;DHT22;67726;45.636;11.752;2023-03-19T00:05:59;8.90;69.50
78054;DHT22;67726;45.636;11.752;2023-03-19T00:08:25;8.80;69.50
78054;DHT22;67726;45.636;11.752;2023-03-19T00:10:51;8.80;69.40
78054;DHT22;67726;45.636;11.752;2023-03-19T00:13:17;8.80;69.50
78054;DHT22;67726;45.636;11.752;2023-03-19T00:15:43;8.80;69.40
78054;DHT22;67726;45.636;11.752;2023-03-19T00:18:08;8.70;70.20
78054;DHT22;67726;45.636;11.752;2023-03-19T00:20:34;8.70;70.70
78054;DHT22;67726;45.636;11.752;2023-03-19T00:23:00;8.60;69.60
78054;DHT22;67726;45.636;11.752;2023-03-19T00:25:26;8.70;70.30
78054;DHT22;67726;45.636;11.752;2023-03-19T00:27:52;8.50;70.20
78054;DHT22;67726;45.636;11.752;2023-03-19T00:30:20;8.50;69.50
78054;DHT22;67726;45.636;11.752;2023-03-19T00:32:47;8.40;69.30
78054;DHT22;67726;45.636;11.752;2023-03-19T00:35:13;8.50;69.50
78054;DHT22;67726;45.636;11.752;2023-03-19T00:37:39;8.60;69.50
78054;DHT22;67726;45.636;11.752;2023-03-19T00:40:05;8.50;69.60
78054;DHT22;67726;45.636;11.752;2023-03-19T00:42:32;8.30;69.50
78054;DHT22;67726;45.636;11.752;2023-03-19T00:44:58;8.10;70.00
78054;DHT22;67726;45.636;11.752;2023-03-19T00:47:24;8.40;72.30
78054;DHT22;67726;45.636;11.752;2023-03-19T00:49:50;8.30;70.70
78054;DHT22;67726;45.636;11.752;2023-03-19T00:52:16;8.30;70.30
78054;DHT22;67726;45.636;11.752;2023-03-19T00:54:41;8.20;70.60
78054;DHT22;67726;45.636;11.752;2023-03-19T00:57:07;8.10;71.10
78054;DHT22;67726;45.636;11.752;2023-03-19T00:59:33;8.30;71.60
78054;DHT22;67726;45.636;11.752;2023-03-19T01:01:59;8.10;71.40
78054;DHT22;67726;45.636;11.752;2023-03-19T01:04:24;8.20;70.40
78054;DHT22;67726;45.636;11.752;2023-03-19T01:06:50;8.20;70.10
78054;DHT22;67726;45.636;11.752;2023-03-19T01:09:16;8.30;71.60
78054;DHT22;67726;45.636;11.752;2023-03-19T01:11:42;8.40;71.70
78054;DHT22;67726;45.636;11.752;2023-03-19T01:14:07;8.40;70.50
78054;DHT22;67726;45.636;11.752;2023-03-19T01:16:33;8.30;69.60
78054;DHT22;67726;45.636;11.752;2023-03-19T01:19:00;8.30;69.40
78054;DHT22;67726;45.636;11.752;2023-03-19T01:21:26;8.10;69.80
78054;DHT22;67726;45.636;11.752;2023-03-19T01:23:58;8.30;69.50
78054;DHT22;67726;45.636;11.752;2023-03-19T01:26:23;8.20;69.50
78054;DHT22;67726;45.636;11.752;2023-03-19T01:28:50;8.30;69.30
78054;DHT22;67726;45.636;11.752;2023-03-19T01:31:16;8.20;70.30
78054;DHT22;67726;45.636;11.752;2023-03-19T01:33:42;8.10;71.60
78054;DHT22;67726;45.636;11.752;2023-03-19T01:36:08;8.20;70.20
78054;DHT22;67726;45.636;11.752;2023-03-19T01:38:34;8.10;70.20
78054;DHT22;67726;45.636;11.752;2023-03-19T01:41:00;8.20;70.80
78054;DHT22;67726;45.636;11.752;2023-03-19T01:43:28;8.20;71.60
78054;DHT22;67726;45.636;11.752;2023-03-19T01:46:27;7.90;70.30
78054;DHT22;67726;45.636;11.752;2023-03-19T01:49:06;7.90;70.40
78054;DHT22;67726;45.636;11.752;2023-03-19T01:51:36;7.90;70.20
78054;DHT22;67726;45.636;11.752;2023-03-19T01:54:13;7.90;70.80
78054;DHT22;67726;45.636;11.752;2023-03-19T01:56:42;8.00;71.70
78054;DHT22;67726;45.636;11.752;2023-03-19T01:59:14;8.00;70.60
78054;DHT22;67726;45.636;11.752;2023-03-19T02:01:55;7.90;70.30
78054;DHT22;67726;45.636;11.752;2023-03-19T02:04:24;8.00;70.60
78054;DHT22;67726;45.636;11.752;2023-03-19T02:06:53;7.80;70.30
78054;DHT22;67726;45.636;11.752;2023-03-19T02:09:20;8.00;70.70
78054;DHT22;67726;45.636;11.752;2023-03-19T02:11:45;7.90;70.60
78054;DHT22;67726;45.636;11.752;2023-03-19T02:14:11;7.90;70.70
78054;DHT22;67726;45.636;11.752;2023-03-19T02:16:38;7.60;69.90
78054;DHT22;67726;45.636;11.752;2023-03-19T02:19:06;7.90;70.50
78054;DHT22;67726;45.636;11.752;2023-03-19T02:21:34;7.90;70.40
78054;DHT22;67726;45.636;11.752;2023-03-19T02:24:12;7.80;70.30
78054;DHT22;67726;45.636;11.752;2023-03-19T02:26:40;7.80;70.50
78054;DHT22;67726;45.636;11.752;2023-03-19T02:29:06;8.00;70.40
78054;DHT22;67726;45.636;11.752;2023-03-19T02:31:32;8.00;70.80
78054;DHT22;67726;45.636;11.752;2023-03-19T02:34:00;7.90;70.30
78054;DHT22;67726;45.636;11.752;2023-03-19T02:36:40;7.90;70.20
78054;DHT22;67726;45.636;11.752;2023-03-19T02:39:17;8.20;70.30
78054;DHT22;67726;45.636;11.752;2023-03-19T02:41:44;8.10;69.80
78054;DHT22;67726;45.636;11.752;2023-03-19T02:44:11;8.10;69.60
78054;DHT22;67726;45.636;11.752;2023-03-19T02:46:37;8.20;70.00
78054;DHT22;67726;45.636;11.752;2023-03-19T02:49:03;8.20;69.90
78054;DHT22;67726;45.636;11.752;2023-03-19T02:51:29;8.20;75.00
78054;DHT22;67726;45.636;11.752;2023-03-19T02:53:55;8.30;73.60
78054;DHT22;67726;45.636;11.752;2023-03-19T02:56:21;8.30;72.10
78054;DHT22;67726;45.636;11.752;2023-03-19T02:58:46;8.30;71.00
78054;DHT22;67726;45.636;11.752;2023-03-19T03:01:12;8.20;72.50
78054;DHT22;67726;45.636;11.752;2023-03-19T03:03:38;8.40;70.20
78054;DHT22;67726;45.636;11.752;2023-03-19T03:06:04;8.40;74.20
78054;DHT22;67726;45.636;11.752;2023-03-19T03:08:29;8.30;72.00
78054;DHT22;67726;45.636;11.752;2023-03-19T03:10:55;8.20;69.90
78054;DHT22;67726;45.636;11.752;2023-03-19T03:13:21;8.40;70.30
78054;DHT22;67726;45.636;11.752;2023-03-19T03:15:46;8.30;70.40
78054;DHT22;67726;45.636;11.752;2023-03-19T03:18:12;8.20;70.70
78054;DHT22;67726;45.636;11.752;2023-03-19T03:20:38;8.10;71.30
78054;DHT22;67726;45.636;11.752;2023-03-19T03:23:03;8.20;73.90
78054;DHT22;67726;45.636;11.752;2023-03-19T03:25:29;8.00;74.50
78054;DHT22;67726;45.636;11.752;2023-03-19T03:27:55;8.10;74.80
78054;DHT22;67726;45.636;11.752;2023-03-19T03:30:20;8.10;74.80
78054;DHT22;67726;45.636;11.752;2023-03-19T03:32:46;8.20;76.80
78054;DHT22;67726;45.636;11.752;2023-03-19T03:35:12;8.20;77.00
78054;DHT22;67726;45.636;11.752;2023-03-19T03:37:40;8.10;77.80
78054;DHT22;67726;45.636;11.752;2023-03-19T03:40:06;8.20;76.80
78054;DHT22;67726;45.636;11.752;2023-03-19T03:42:33;8.10;77.00
78054;DHT22;67726;45.636;11.752;2023-03-19T03:45:00;8.10;76.00
78054;DHT22;67726;45.636;11.752;2023-03-19T03:47:26;8.00;75.40
78054;DHT22;67726;45.636;11.752;2023-03-19T03:49:51;8.00;76.90
78054;DHT22;67726;45.636;11.752;2023-03-19T03:52:17;8.10;75.40
78054;DHT22;67726;45.636;11.752;2023-03-19T03:54:42;8.20;76.80
78054;DHT22;67726;45.636;11.752;2023-03-19T03:57:08;8.30;78.20
78054;DHT22;67726;45.636;11.752;2023-03-19T03:59:34;8.30;78.60
78054;DHT22;67726;45.636;11.752;2023-03-19T04:02:00;8.10;76.20
78054;DHT22;67726;45.636;11.752;2023-03-19T04:04:26;8.40;75.90
78054;DHT22;67726;45.636;11.752;2023-03-19T04:06:51;8.40;76.50
78054;DHT22;67726;45.636;11.752;2023-03-19T04:09:17;8.50;74.70
78054;DHT22;67726;45.636;11.752;2023-03-19T04:11:42;8.40;73.50
78054;DHT22;67726;45.636;11.752;2023-03-19T04:14:08;8.40;73.30
78054;DHT22;67726;45.636;11.752;2023-03-19T04:16:34;8.40;73.50
78054;DHT22;67726;45.636;11.752;2023-03-19T04:19:00;8.40;73.10
78054;DHT22;67726;45.636;11.752;2023-03-19T04:21:25;8.50;73.90
78054;DHT22;67726;45.636;11.752;2023-03-19T04:23:52;8.50;77.70
78054;DHT22;67726;45.636;11.752;2023-03-19T04:26:18;8.50;78.00
78054;DHT22;67726;45.636;11.752;2023-03-19T04:28:43;8.50;77.50
78054;DHT22;67726;45.636;11.752;2023-03-19T04:31:09;8.60;76.60
78054;DHT22;67726;45.636;11.752;2023-03-19T04:33:35;8.60;73.80
78054;DHT22;67726;45.636;11.752;2023-03-19T04:36:02;8.50;74.90
78054;DHT22;67726;45.636;11.752;2023-03-19T04:38:28;8.50;72.60
78054;DHT22;67726;45.636;11.752;2023-03-19T04:40:56;8.40;72.10
78054;DHT22;67726;45.636;11.752;2023-03-19T04:43:23;8.50;72.60
78054;DHT22;67726;45.636;11.752;2023-03-19T04:45:49;8.50;74.80
78054;DHT22;67726;45.636;11.752;2023-03-19T04:48:15;8.50;73.70
78054;DHT22;67726;45.636;11.752;2023-03-19T04:50:41;8.50;74.20
78054;DHT22;67726;45.636;11.752;2023-03-19T04:53:07;8.60;74.70
78054;DHT22;67726;45.636;11.752;2023-03-19T04:55:33;8.40;76.30
78054;DHT22;67726;45.636;11.752;2023-03-19T04:57:59;8.60;77.30
78054;DHT22;67726;45.636;11.752;2023-03-19T05:00:26;8.50;75.30
78054;DHT22;67726;45.636;11.752;2023-03-19T05:02:52;8.50;73.70
78054;DHT22;67726;45.636;11.752;2023-03-19T05:05:18;8.60;75.40
78054;DHT22;67726;45.636;11.752;2023-03-19T05:07:43;8.60;71.40
78054;DHT22;67726;45.636;11.752;2023-03-19T05:10:09;8.60;71.80
78054;DHT22;67726;45.636;11.752;2023-03-19T05:12:35;8.60;71.50
78054;DHT22;67726;45.636;11.752;2023-03-19T05:15:02;8.60;71.50
78054;DHT22;67726;45.636;11.752;2023-03-19T05:17:29;8.60;71.90
78054;DHT22;67726;45.636;11.752;2023-03-19T05:19:55;8.60;72.00
78054;DHT22;67726;45.636;11.752;2023-03-19T05:22:21;8.70;71.70
78054;DHT22;67726;45.636;11.752;2023-03-19T05:24:48;8.40;71.20
78054;DHT22;67726;45.636;11.752;2023-03-19T05:27:14;8.70;71.50
78054;DHT22;67726;45.636;11.752;2023-03-19T05:29:40;8.60;70.90
78054;DHT22;67726;45.636;11.752;2023-03-19T05:32:07;8.50;71.50
78054;DHT22;67726;45.636;11.752;2023-03-19T05:34:33;8.60;70.80
78054;DHT22;67726;45.636;11.752;2023-03-19T05:36:58;8.60;70.10
78054;DHT22;67726;45.636;11.752;2023-03-19T05:39:24;8.50;70.50
78054;DHT22;67726;45.636;11.752;2023-03-19T05:41:50;8.50;70.80
78054;DHT22;67726;45.636;11.752;2023-03-19T05:44:16;8.60;68.30
78054;DHT22;67726;45.636;11.752;2023-03-19T05:46:41;8.50;68.60
78054;DHT22;67726;45.636;11.752;2023-03-19T05:49:08;8.60;68.80
78054;DHT22;67726;45.636;11.752;2023-03-19T05:51:33;8.60;68.70
78054;DHT22;67726;45.636;11.752;2023-03-19T05:53:59;8.50;68.80
78054;DHT22;67726;45.636;11.752;2023-03-19T05:56:25;8.70;69.20
78054;DHT22;67726;45.636;11.752;2023-03-19T05:58:51;8.60;69.00
78054;DHT22;67726;45.636;11.752;2023-03-19T06:01:16;8.80;71.50
78054;DHT22;67726;45.636;11.752;2023-03-19T06:03:42;8.80;68.80
78054;DHT22;67726;45.636;11.752;2023-03-19T06:06:08;8.80;71.20
78054;DHT22;67726;45.636;11.752;2023-03-19T06:08:33;8.90;69.20
78054;DHT22;67726;45.636;11.752;2023-03-19T06:10:59;8.90;69.60
78054;DHT22;67726;45.636;11.752;2023-03-19T06:13:25;9.10;68.70
78054;DHT22;67726;45.636;11.752;2023-03-19T06:15:51;9.20;69.70
78054;DHT22;67726;45.636;11.752;2023-03-19T06:18:17;9.30;68.50
78054;DHT22;67726;45.636;11.752;2023-03-19T06:20:43;9.30;68.20
78054;DHT22;67726;45.636;11.752;2023-03-19T06:23:10;9.20;66.90
78054;DHT22;67726;45.636;11.752;2023-03-19T06:25:36;9.40;67.60
78054;DHT22;67726;45.636;11.752;2023-03-19T06:28:03;9.50;70.20
78054;DHT22;67726;45.636;11.752;2023-03-19T06:30:28;9.50;67.50
78054;DHT22;67726;45.636;11.752;2023-03-19T06:32:54;9.60;68.80
78054;DHT22;67726;45.636;11.752;2023-03-19T06:35:20;9.70;68.70
78054;DHT22;67726;45.636;11.752;2023-03-19T06:37:46;9.80;70.90
78054;DHT22;67726;45.636;11.752;2023-03-19T06:40:13;9.90;74.00
78054;DHT22;67726;45.636;11.752;2023-03-19T06:42:39;10.00;73.90
78054;DHT22;67726;45.636;11.752;2023-03-19T06:45:08;10.00;70.70
78054;DHT22;67726;45.636;11.752;2023-03-19T06:47:34;10.10;68.10
78054;DHT22;67726;45.636;11.752;2023-03-19T06:50:00;10.20;69.80
78054;DHT22;67726;45.636;11.752;2023-03-19T06:52:26;10.20;66.40
78054;DHT22;67726;45.636;11.752;2023-03-19T06:54:51;10.30;64.70
78054;DHT22;67726;45.636;11.752;2023-03-19T06:57:17;10.40;69.40
78054;DHT22;67726;45.636;11.752;2023-03-19T06:59:43;10.40;68.00
78054;DHT22;67726;45.636;11.752;2023-03-19T07:02:10;10.50;65.60
78054;DHT22;67726;45.636;11.752;2023-03-19T07:04:36;10.50;61.60
78054;DHT22;67726;45.636;11.752;2023-03-19T07:07:02;10.60;60.90
78054;DHT22;67726;45.636;11.752;2023-03-19T07:09:30;10.60;60.30
78054;DHT22;67726;45.636;11.752;2023-03-19T07:11:56;10.70;68.10
78054;DHT22;67726;45.636;11.752;2023-03-19T07:14:22;10.80;66.10
78054;DHT22;67726;45.636;11.752;2023-03-19T07:16:48;11.00;71.20
78054;DHT22;67726;45.636;11.752;2023-03-19T07:19:14;11.20;69.90
78054;DHT22;67726;45.636;11.752;2023-03-19T07:21:39;11.30;70.40
78054;DHT22;67726;45.636;11.752;2023-03-19T07:24:06;11.40;66.20
78054;DHT22;67726;45.636;11.752;2023-03-19T07:26:32;11.60;69.20
78054;DHT22;67726;45.636;11.752;2023-03-19T07:28:57;11.70;66.80
78054;DHT22;67726;45.636;11.752;2023-03-19T07:31:23;11.70;65.50
78054;DHT22;67726;45.636;11.752;2023-03-19T07:33:50;11.90;62.30
78054;DHT22;67726;45.636;11.752;2023-03-19T07:36:15;11.90;60.90
78054;DHT22;67726;45.636;11.752;2023-03-19T07:38:41;12.10;62.90
78054;DHT22;67726;45.636;11.752;2023-03-19T07:41:07;12.30;59.80
78054;DHT22;67726;45.636;11.752;2023-03-19T07:43:33;12.40;63.20
78054;DHT22;67726;45.636;11.752;2023-03-19T07:45:58;12.70;60.50
78054;DHT22;67726;45.636;11.752;2023-03-19T07:48:25;12.80;56.20
78054;DHT22;67726;45.636;11.752;2023-03-19T07:50:51;12.90;57.60
78054;DHT22;67726;45.636;11.752;2023-03-19T07:53:16;12.90;55.00
78054;DHT22;67726;45.636;11.752;2023-03-19T07:55:42;13.00;55.80
78054;DHT22;67726;45.636;11.752;2023-03-19T07:58:09;13.00;58.30
78054;DHT22;67726;45.636;11.752;2023-03-19T08:00:35;13.20;58.90
78054;DHT22;67726;45.636;11.752;2023-03-19T08:03:01;13.30;54.00
78054;DHT22;67726;45.636;11.752;2023-03-19T08:05:26;13.60;55.50
78054;DHT22;67726;45.636;11.752;2023-03-19T08:07:52;13.80;55.20
78054;DHT22;67726;45.636;11.752;2023-03-19T08:10:18;13.90;61.00
78054;DHT22;67726;45.636;11.752;2023-03-19T08:12:43;14.20;60.60
78054;DHT22;67726;45.636;11.752;2023-03-19T08:15:10;14.40;56.10
78054;DHT22;67726;45.636;11.752;2023-03-19T08:17:36;14.50;55.10
78054;DHT22;67726;45.636;11.752;2023-03-19T08:20:10;14.80;63.40
78054;DHT22;67726;45.636;11.752;2023-03-19T08:22:37;14.90;54.70
78054;DHT22;67726;45.636;11.752;2023-03-19T08:25:04;14.90;56.80
78054;DHT22;67726;45.636;11.752;2023-03-19T08:27:31;15.00;53.30
78054;DHT22;67726;45.636;11.752;2023-03-19T08:30:00;15.00;56.50
78054;DHT22;67726;45.636;11.752;2023-03-19T08:32:27;15.10;57.00
78054;DHT22;67726;45.636;11.752;2023-03-19T08:34:52;15.30;60.70
78054;DHT22;67726;45.636;11.752;2023-03-19T08:37:18;15.50;55.00
78054;DHT22;67726;45.636;11.752;2023-03-19T08:39:44;15.50;54.60
78054;DHT22;67726;45.636;11.752;2023-03-19T08:42:09;15.70;52.50
78054;DHT22;67726;45.636;11.752;2023-03-19T08:44:36;15.80;59.50
78054;DHT22;67726;45.636;11.752;2023-03-19T08:47:01;15.90;55.80
78054;DHT22;67726;45.636;11.752;2023-03-19T08:49:28;16.10;62.30
78054;DHT22;67726;45.636;11.752;2023-03-19T08:51:54;16.20;53.80
78054;DHT22;67726;45.636;11.752;2023-03-19T08:54:19;16.40;57.40
78054;DHT22;67726;45.636;11.752;2023-03-19T08:56:45;16.40;52.30
78054;DHT22;67726;45.636;11.752;2023-03-19T08:59:11;16.40;53.20
78054;DHT22;67726;45.636;11.752;2023-03-19T09:01:38;16.40;50.10
78054;DHT22;67726;45.636;11.752;2023-03-19T09:04:03;16.40;59.20
78054;DHT22;67726;45.636;11.752;2023-03-19T09:06:29;16.50;51.60
78054;DHT22;67726;45.636;11.752;2023-03-19T09:08:55;16.60;51.10
78054;DHT22;67726;45.636;11.752;2023-03-19T09:11:21;16.60;52.40
78054;DHT22;67726;45.636;11.752;2023-03-19T09:13:47;16.70;56.70
78054;DHT22;67726;45.636;11.752;2023-03-19T09:16:13;16.80;52.20
78054;DHT22;67726;45.636;11.752;2023-03-19T09:18:40;16.90;49.70
78054;DHT22;67726;45.636;11.752;2023-03-19T09:21:05;17.10;56.60
78054;DHT22;67726;45.636;11.752;2023-03-19T09:23:31;17.00;55.30
78054;DHT22;67726;45.636;11.752;2023-03-19T09:25:56;16.90;49.70
78054;DHT22;67726;45.636;11.752;2023-03-19T09:28:22;16.90;59.10
78054;DHT22;67726;45.636;11.752;2023-03-19T09:30:49;17.00;60.50
78054;DHT22;67726;45.636;11.752;2023-03-19T09:33:16;17.10;59.90
78054;DHT22;67726;45.636;11.752;2023-03-19T09:35:47;17.40;54.40
78054;DHT22;67726;45.636;11.752;2023-03-19T09:38:13;17.30;48.60
78054;DHT22;67726;45.636;11.752;2023-03-19T09:40:42;17.30;52.00
78054;DHT22;67726;45.636;11.752;2023-03-19T09:45:56;17.60;48.60
78054;DHT22;67726;45.636;11.752;2023-03-19T09:48:42;17.80;51.90
78054;DHT22;67726;45.636;11.752;2023-03-19T09:51:20;18.10;53.30
78054;DHT22;67726;45.636;11.752;2023-03-19T09:56:17;18.50;49.20
78054;DHT22;67726;45.636;11.752;2023-03-19T09:58:44;18.70;49.50
78054;DHT22;67726;45.636;11.752;2023-03-19T10:01:29;18.90;43.10
78054;DHT22;67726;45.636;11.752;2023-03-19T10:06:38;19.10;46.50
78054;DHT22;67726;45.636;11.752;2023-03-19T10:17:39;19.40;40.70
78054;DHT22;67726;45.636;11.752;2023-03-19T10:22:44;19.90;39.90
78054;DHT22;67726;45.636;11.752;2023-03-19T10:25:17;20.10;52.00
78054;DHT22;67726;45.636;11.752;2023-03-19T10:27:45;20.30;39.80
78054;DHT22;67726;45.636;11.752;2023-03-19T10:30:16;20.40;47.50
78054;DHT22;67726;45.636;11.752;2023-03-19T10:32:47;20.70;51.20
78054;DHT22;67726;45.636;11.752;2023-03-19T10:37:43;20.90;43.60
78054;DHT22;67726;45.636;11.752;2023-03-19T10:40:37;21.00;38.30
78054;DHT22;67726;45.636;11.752;2023-03-19T10:43:16;21.10;45.60
78054;DHT22;67726;45.636;11.752;2023-03-19T10:45:45;21.20;38.10
78054;DHT22;67726;45.636;11.752;2023-03-19T10:48:18;21.40;42.50
78054;DHT22;67726;45.636;11.752;2023-03-19T10:50:57;21.40;35.10
78054;DHT22;67726;45.636;11.752;2023-03-19T10:53:30;21.50;31.80
78054;DHT22;67726;45.636;11.752;2023-03-19T10:56:19;21.80;32.80
78054;DHT22;67726;45.636;11.752;2023-03-19T11:01:39;21.50;39.20
78054;DHT22;67726;45.636;11.752;2023-03-19T11:04:14;21.40;45.20
78054;DHT22;67726;45.636;11.752;2023-03-19T11:07:08;21.80;45.60
78054;DHT22;67726;45.636;11.752;2023-03-19T11:09:36;22.30;30.30
78054;DHT22;67726;45.636;11.752;2023-03-19T11:14:46;21.60;36.10
78054;DHT22;67726;45.636;11.752;2023-03-19T11:17:34;21.90;44.30
78054;DHT22;67726;45.636;11.752;2023-03-19T11:20:22;21.80;28.80
78054;DHT22;67726;45.636;11.752;2023-03-19T11:22:50;21.80;38.20
78054;DHT22;67726;45.636;11.752;2023-03-19T11:25:25;22.10;45.20
78054;DHT22;67726;45.636;11.752;2023-03-19T11:27:59;22.40;40.40
78054;DHT22;67726;45.636;11.752;2023-03-19T11:50:13;22.60;33.30
78054;DHT22;67726;45.636;11.752;2023-03-19T11:55:32;22.60;41.20
78054;DHT22;67726;45.636;11.752;2023-03-19T12:00:46;22.40;33.60
78054;DHT22;67726;45.636;11.752;2023-03-19T12:05:55;22.50;28.40
78054;DHT22;67726;45.636;11.752;2023-03-19T12:08:44;22.00;34.60
78054;DHT22;67726;45.636;11.752;2023-03-19T12:14:52;22.40;38.80
78054;DHT22;67726;45.636;11.752;2023-03-19T12:28:02;22.20;25.10
78054;DHT22;67726;45.636;11.752;2023-03-19T12:30:40;22.50;36.70
78054;DHT22;67726;45.636;11.752;2023-03-19T12:35:49;23.20;29.90
78054;DHT22;67726;45.636;11.752;2023-03-19T12:40:58;23.10;24.80
78054;DHT22;67726;45.636;11.752;2023-03-19T12:43:27;23.20;26.90
78054;DHT22;67726;45.636;11.752;2023-03-19T12:46:11;23.20;27.50
78054;DHT22;67726;45.636;11.752;2023-03-19T12:49:04;23.40;23.50
78054;DHT22;67726;45.636;11.752;2023-03-19T12:51:34;23.60;29.10
78054;DHT22;67726;45.636;11.752;2023-03-19T12:56:38;24.00;24.00
78054;DHT22;67726;45.636;11.752;2023-03-19T12:59:16;23.90;23.90
78054;DHT22;67726;45.636;11.752;2023-03-19T13:01:50;23.90;21.10
78054;DHT22;67726;45.636;11.752;2023-03-19T13:04:21;24.00;22.50
78054;DHT22;67726;45.636;11.752;2023-03-19T13:06:52;24.30;22.60
78054;DHT22;67726;45.636;11.752;2023-03-19T13:09:48;24.80;22.50
78054;DHT22;67726;45.636;11.752;2023-03-19T13:12:20;24.90;22.70
78054;DHT22;67726;45.636;11.752;2023-03-19T13:14:57;24.80;22.60
78054;DHT22;67726;45.636;11.752;2023-03-19T13:20:00;25.30;20.90
78054;DHT22;67726;45.636;11.752;2023-03-19T13:22:34;25.20;20.20
78054;DHT22;67726;45.636;11.752;2023-03-19T13:25:02;25.20;22.00
78054;DHT22;67726;45.636;11.752;2023-03-19T13:27:33;25.70;21.00
78054;DHT22;67726;45.636;11.752;2023-03-19T13:33:00;25.60;20.10
78054;DHT22;67726;45.636;11.752;2023-03-19T13:40:51;24.60;20.50
78054;DHT22;67726;45.636;11.752;2023-03-19T13:46:24;23.80;22.10
78054;DHT22;67726;45.636;11.752;2023-03-19T13:48:53;24.30;21.50
78054;DHT22;67726;45.636;11.752;2023-03-19T13:54:05;24.00;21.60
78054;DHT22;67726;45.636;11.752;2023-03-19T13:59:33;23.30;23.60
78054;DHT22;67726;45.636;11.752;2023-03-19T14:02:02;23.20;23.50
78054;DHT22;67726;45.636;11.752;2023-03-19T14:04:30;23.40;24.00
78054;DHT22;67726;45.636;11.752;2023-03-19T14:07:21;23.40;23.80
78054;DHT22;67726;45.636;11.752;2023-03-19T14:09:55;23.50;24.60
78054;DHT22;67726;45.636;11.752;2023-03-19T14:12:36;23.40;23.90
78054;DHT22;67726;45.636;11.752;2023-03-19T14:18:02;23.30;23.40
78054;DHT22;67726;45.636;11.752;2023-03-19T14:23:20;22.20;25.20
78054;DHT22;67726;45.636;11.752;2023-03-19T14:25:57;22.30;25.30
78054;DHT22;67726;45.636;11.752;2023-03-19T14:31:22;23.20;26.10
78054;DHT22;67726;45.636;11.752;2023-03-19T14:33:57;23.20;24.80
78054;DHT22;67726;45.636;11.752;2023-03-19T14:36:24;22.80;25.40
78054;DHT22;67726;45.636;11.752;2023-03-19T14:39:00;22.40;26.60
78054;DHT22;67726;45.636;11.752;2023-03-19T14:41:32;22.00;27.20
78054;DHT22;67726;45.636;11.752;2023-03-19T14:47:14;21.50;28.00
78054;DHT22;67726;45.636;11.752;2023-03-19T14:54:47;21.20;28.80
78054;DHT22;67726;45.636;11.752;2023-03-19T14:57:17;20.80;30.50
78054;DHT22;67726;45.636;11.752;2023-03-19T14:59:43;20.20;31.00
78054;DHT22;67726;45.636;11.752;2023-03-19T15:04:57;20.20;31.50
78054;DHT22;67726;45.636;11.752;2023-03-19T15:07:35;20.00;32.10
78054;DHT22;67726;45.636;11.752;2023-03-19T15:10:04;20.00;32.30
78054;DHT22;67726;45.636;11.752;2023-03-19T15:12:34;19.80;32.50
78054;DHT22;67726;45.636;11.752;2023-03-19T15:17:37;19.30;34.00
78054;DHT22;67726;45.636;11.752;2023-03-19T15:20:15;19.00;34.50
78054;DHT22;67726;45.636;11.752;2023-03-19T15:22:41;18.70;35.30
78054;DHT22;67726;45.636;11.752;2023-03-19T15:25:12;18.50;35.40
78054;DHT22;67726;45.636;11.752;2023-03-19T15:27:39;18.60;35.50
78054;DHT22;67726;45.636;11.752;2023-03-19T15:30:21;18.30;36.70
78054;DHT22;67726;45.636;11.752;2023-03-19T15:32:49;18.20;35.80
78054;DHT22;67726;45.636;11.752;2023-03-19T15:35:15;18.10;37.10
78054;DHT22;67726;45.636;11.752;2023-03-19T15:37:43;18.20;36.00
78054;DHT22;67726;45.636;11.752;2023-03-19T15:40:13;18.20;36.40
78054;DHT22;67726;45.636;11.752;2023-03-19T15:42:40;18.20;36.60
78054;DHT22;67726;45.636;11.752;2023-03-19T15:45:09;18.10;38.10
78054;DHT22;67726;45.636;11.752;2023-03-19T15:48:40;18.00;38.20
78054;DHT22;67726;45.636;11.752;2023-03-19T15:50:36;17.90;38.50
78054;DHT22;67726;45.636;11.752;2023-03-19T15:53:14;17.90;38.30
78054;DHT22;67726;45.636;11.752;2023-03-19T15:55:41;17.60;39.10
78054;DHT22;67726;45.636;11.752;2023-03-19T15:58:10;17.60;39.10
78054;DHT22;67726;45.636;11.752;2023-03-19T16:00:37;17.60;38.90
78054;DHT22;67726;45.636;11.752;2023-03-19T16:03:05;17.70;39.30
78054;DHT22;67726;45.636;11.752;2023-03-19T16:05:32;17.50;39.30
78054;DHT22;67726;45.636;11.752;2023-03-19T16:07:59;17.70;39.80
78054;DHT22;67726;45.636;11.752;2023-03-19T16:10:38;17.50;39.50
78054;DHT22;67726;45.636;11.752;2023-03-19T16:13:26;17.50;39.70
78054;DHT22;67726;45.636;11.752;2023-03-19T16:18:27;17.40;39.60
78054;DHT22;67726;45.636;11.752;2023-03-19T16:21:08;17.30;40.00
78054;DHT22;67726;45.636;11.752;2023-03-19T16:23:51;17.40;40.40
78054;DHT22;67726;45.636;11.752;2023-03-19T16:26:21;17.30;40.20
78054;DHT22;67726;45.636;11.752;2023-03-19T16:28:58;17.20;40.20
78054;DHT22;67726;45.636;11.752;2023-03-19T16:31:27;17.10;40.30
78054;DHT22;67726;45.636;11.752;2023-03-19T16:33:54;17.10;40.40
78054;DHT22;67726;45.636;11.752;2023-03-19T16:36:22;17.10;41.00
78054;DHT22;67726;45.636;11.752;2023-03-19T16:38:53;16.90;41.00
78054;DHT22;67726;45.636;11.752;2023-03-19T16:41:28;16.90;40.90
78054;DHT22;67726;45.636;11.752;2023-03-19T16:44:09;16.90;41.10
78054;DHT22;67726;45.636;11.752;2023-03-19T16:46:36;16.90;41.20
78054;DHT22;67726;45.636;11.752;2023-03-19T16:49:02;16.90;41.70
78054;DHT22;67726;45.636;11.752;2023-03-19T16:51:27;16.80;41.60
78054;DHT22;67726;45.636;11.752;2023-03-19T16:53:53;16.80;41.60
78054;DHT22;67726;45.636;11.752;2023-03-19T16:56:19;16.80;41.90
78054;DHT22;67726;45.636;11.752;2023-03-19T16:58:45;16.60;42.20
78054;DHT22;67726;45.636;11.752;2023-03-19T17:01:13;16.70;41.90
78054;DHT22;67726;45.636;11.752;2023-03-19T17:03:41;16.60;42.10
78054;DHT22;67726;45.636;11.752;2023-03-19T17:06:09;16.60;42.00
78054;DHT22;67726;45.636;11.752;2023-03-19T17:08:35;16.60;42.40
78054;DHT22;67726;45.636;11.752;2023-03-19T17:11:01;16.50;42.50
78054;DHT22;67726;45.636;11.752;2023-03-19T17:13:29;16.50;42.40
78054;DHT22;67726;45.636;11.752;2023-03-19T17:16:01;16.50;43.30
78054;DHT22;67726;45.636;11.752;2023-03-19T17:18:33;16.40;44.50
78054;DHT22;67726;45.636;11.752;2023-03-19T17:21:10;16.30;45.30
78054;DHT22;67726;45.636;11.752;2023-03-19T17:23:36;16.30;46.00
78054;DHT22;67726;45.636;11.752;2023-03-19T17:26:12;16.20;46.60
78054;DHT22;67726;45.636;11.752;2023-03-19T17:28:39;16.10;47.30
78054;DHT22;67726;45.636;11.752;2023-03-19T17:31:07;16.10;47.70
78054;DHT22;67726;45.636;11.752;2023-03-19T17:33:35;16.00;47.90